createdAt,value
2023-05-23T00:01:43.392Z,4.22
2023-05-23T00:04:10.956Z,4.40
2023-05-23T00:06:38.937Z,4.28
2023-05-23T00:09:06.213Z,5.82
2023-05-23T00:11:33.282Z,4.82
2023-05-23T00:14:02.493Z,4.10
2023-05-23T00:16:30.091Z,4.45
2023-05-23T00:18:59.271Z,4.38
2023-05-23T00:21:27.502Z,4.28
2023-05-23T00:23:54.456Z,3.95
2023-05-23T00:26:21.970Z,4.07
2023-05-23T00:28:49.349Z,4.30
2023-05-23T00:31:16.369Z,4.50
2023-05-23T00:33:43.617Z,5.03
2023-05-23T00:36:10.600Z,5.00
2023-05-23T00:38:38.170Z,5.07
2023-05-23T00:41:05.800Z,4.28
2023-05-23T00:43:32.929Z,4.78
2023-05-23T00:46:01.139Z,5.13
2023-05-23T00:48:29.547Z,5.72
2023-05-23T00:50:57.818Z,5.70
2023-05-23T00:53:25.637Z,4.78
2023-05-23T00:55:52.799Z,6.30
2023-05-23T00:58:20.262Z,5.88
2023-05-23T01:00:50.376Z,6.00
2023-05-23T01:03:18.369Z,5.60
2023-05-23T01:05:45.818Z,5.10
2023-05-23T01:08:12.904Z,4.22
2023-05-23T01:10:40.053Z,3.88
2023-05-23T01:13:43.252Z,3.80
2023-05-23T01:16:18.854Z,5.57
2023-05-23T01:19:23.799Z,3.13
2023-05-23T01:21:54.996Z,4.07
2023-05-23T01:24:37.744Z,5.05
2023-05-23T01:27:33.203Z,4.22
2023-05-23T01:30:02.169Z,4.90
2023-05-23T01:32:29.759Z,5.05
2023-05-23T01:35:00.864Z,4.30
2023-05-23T01:37:29.801Z,5.57
2023-05-23T01:39:56.972Z,5.45
2023-05-23T01:42:24.119Z,4.95
2023-05-23T01:44:52.245Z,5.57
2023-05-23T01:47:19.908Z,4.70
2023-05-23T01:49:48.397Z,5.10
2023-05-23T01:52:16.558Z,5.45
2023-05-23T01:54:44.469Z,5.95
2023-05-23T01:57:12.332Z,5.00
2023-05-23T01:59:39.385Z,5.68
2023-05-23T02:02:06.602Z,4.90
2023-05-23T02:04:33.950Z,5.18
2023-05-23T02:07:01.058Z,5.10
2023-05-23T02:09:28.119Z,4.68
2023-05-23T02:11:55.088Z,4.70
2023-05-23T02:14:23.967Z,5.30
2023-05-23T02:16:53.773Z,6.32
2023-05-23T02:19:20.880Z,6.93
2023-05-23T02:21:47.873Z,6.65
2023-05-23T02:24:14.904Z,7.05
2023-05-23T02:26:42.003Z,5.72
2023-05-23T02:29:08.950Z,5.75
2023-05-23T02:31:36.955Z,5.47
2023-05-23T02:34:03.963Z,5.72
2023-05-23T02:36:33.476Z,6.35
2023-05-23T02:39:00.698Z,6.63
2023-05-23T02:41:27.690Z,7.00
2023-05-23T02:43:55.039Z,7.90
2023-05-23T02:46:22.152Z,5.30
2023-05-23T02:48:49.242Z,6.38
2023-05-23T02:51:16.392Z,5.70
2023-05-23T02:53:43.376Z,6.68
2023-05-23T02:56:10.435Z,7.57
2023-05-23T02:58:37.708Z,6.82
2023-05-23T03:01:06.998Z,6.40
2023-05-23T03:03:35.517Z,7.72
2023-05-23T03:06:05.019Z,6.80
2023-05-23T03:08:32.173Z,6.32
2023-05-23T03:10:59.160Z,7.15
2023-05-23T03:13:26.483Z,5.25
2023-05-23T03:15:53.677Z,6.07
2023-05-23T03:18:20.707Z,8.27
2023-05-23T03:20:47.742Z,6.72
2023-05-23T03:23:14.693Z,5.47
2023-05-23T03:25:43.509Z,7.05
2023-05-23T03:28:12.212Z,5.45
2023-05-23T03:30:39.198Z,5.13
2023-05-23T03:33:07.083Z,5.30
2023-05-23T03:35:34.713Z,5.68
2023-05-23T03:38:02.003Z,5.68
2023-05-23T03:40:29.138Z,4.82
2023-05-23T03:43:06.515Z,5.32
2023-05-23T03:45:36.539Z,6.55
2023-05-23T03:48:10.876Z,5.43
2023-05-23T03:50:37.843Z,4.97
2023-05-23T03:53:04.902Z,5.30
2023-05-23T03:55:32.464Z,6.57
2023-05-23T03:57:59.755Z,5.60
2023-05-23T04:00:27.641Z,5.72
2023-05-23T04:02:54.765Z,5.63
2023-05-23T04:05:24.312Z,5.95
2023-05-23T04:07:54.036Z,5.13
2023-05-23T04:10:21.125Z,4.97
2023-05-23T04:12:48.592Z,6.07
2023-05-23T04:15:18.223Z,5.35
2023-05-23T04:17:56.395Z,4.90
2023-05-23T04:20:25.013Z,5.20
2023-05-23T04:22:52.160Z,7.00
2023-05-23T04:25:20.315Z,5.22
2023-05-23T04:28:19.972Z,7.00
2023-05-23T04:30:49.430Z,4.68
2023-05-23T04:33:19.937Z,4.07
2023-05-23T04:35:47.215Z,5.22
2023-05-23T04:38:15.207Z,5.47
2023-05-23T04:40:43.372Z,4.75
2023-05-23T04:43:42.558Z,6.50
2023-05-23T04:46:18.953Z,6.03
2023-05-23T04:48:48.948Z,5.20
2023-05-23T04:51:15.976Z,5.40
2023-05-23T04:53:52.627Z,5.88
2023-05-23T04:56:23.063Z,6.32
2023-05-23T04:58:50.062Z,6.80
2023-05-23T05:01:17.449Z,6.45
2023-05-23T05:03:44.535Z,5.63
2023-05-23T05:06:11.609Z,6.53
2023-05-23T05:08:40.742Z,6.78
2023-05-23T05:11:09.307Z,5.95
2023-05-23T05:13:36.607Z,6.97
2023-05-23T05:16:04.840Z,6.47
2023-05-23T05:18:31.983Z,6.65
2023-05-23T05:20:59.355Z,5.50
2023-05-23T05:23:30.204Z,4.63
2023-05-23T05:25:58.587Z,6.28
2023-05-23T05:28:25.622Z,5.35
2023-05-23T05:30:54.394Z,6.85
2023-05-23T05:33:26.008Z,5.50
2023-05-23T05:36:08.132Z,6.00
2023-05-23T05:38:35.984Z,5.57
2023-05-23T05:41:02.932Z,6.25
2023-05-23T05:43:34.630Z,5.72
2023-05-23T05:46:01.780Z,5.65
2023-05-23T05:48:29.270Z,5.22
2023-05-23T05:51:01.260Z,5.75
2023-05-23T05:53:30.925Z,6.55
2023-05-23T05:55:57.903Z,5.85
2023-05-23T05:58:24.938Z,6.90
2023-05-23T06:00:59.150Z,5.53
2023-05-23T06:03:27.453Z,5.75
2023-05-23T06:05:55.821Z,6.32
2023-05-23T06:08:23.004Z,5.72
2023-05-23T06:10:50.026Z,5.60
2023-05-23T06:13:17.623Z,5.05
2023-05-23T06:15:48.777Z,5.75
2023-05-23T06:18:15.860Z,4.13
2023-05-23T06:20:42.953Z,4.50
2023-05-23T06:23:14.495Z,5.90
2023-05-23T06:25:41.850Z,4.75
2023-05-23T06:28:09.200Z,4.05
2023-05-23T06:30:38.108Z,5.40
2023-05-23T06:33:05.552Z,3.97
2023-05-23T06:35:32.531Z,4.30
2023-05-23T06:38:01.515Z,4.20
2023-05-23T06:40:28.698Z,3.97
2023-05-23T06:42:56.620Z,3.10
2023-05-23T06:45:47.675Z,3.35
2023-05-23T06:48:14.862Z,4.22
2023-05-23T06:50:42.574Z,3.60
2023-05-23T06:53:11.221Z,3.88
2023-05-23T06:55:38.358Z,3.25
2023-05-23T06:58:07.447Z,3.92
2023-05-23T07:00:36.099Z,2.97
2023-05-23T07:03:11.413Z,3.25
2023-05-23T07:05:41.103Z,3.50
2023-05-23T07:08:11.367Z,3.17
2023-05-23T07:10:41.659Z,2.75
2023-05-23T07:13:22.373Z,3.50
2023-05-23T07:15:49.445Z,3.38
2023-05-23T07:18:16.627Z,3.22
2023-05-23T07:20:43.647Z,3.17
2023-05-23T07:23:15.714Z,3.85
2023-05-23T07:25:53.891Z,3.42
2023-05-23T07:28:31.518Z,4.18
2023-05-23T07:30:59.303Z,3.65
2023-05-23T07:33:27.123Z,3.63
2023-05-23T07:35:59.553Z,5.40
2023-05-23T07:38:27.127Z,3.45
2023-05-23T07:41:06.742Z,3.60
2023-05-23T07:43:38.332Z,4.22
2023-05-23T07:46:05.816Z,3.85
2023-05-23T07:48:33.355Z,3.70
2023-05-23T07:51:01.074Z,3.30
2023-05-23T07:53:28.623Z,3.55
2023-05-23T07:55:55.561Z,3.78
2023-05-23T07:58:25.334Z,3.47
2023-05-23T08:00:53.453Z,2.80
2023-05-23T08:03:46.353Z,2.78
2023-05-23T08:06:21.634Z,2.55
2023-05-23T08:08:49.004Z,2.40
2023-05-23T08:11:16.510Z,2.45
2023-05-23T08:13:47.660Z,2.42
2023-05-23T08:16:36.182Z,1.70
2023-05-23T08:19:04.074Z,2.00
2023-05-23T08:21:32.002Z,2.03
2023-05-23T08:23:59.987Z,2.30
2023-05-23T08:26:34.660Z,2.05
2023-05-23T08:31:34.466Z,2.25
2023-05-23T08:34:03.389Z,2.95
2023-05-23T08:36:34.148Z,3.38
2023-05-23T08:39:01.354Z,3.15
2023-05-23T08:41:31.376Z,2.22
2023-05-23T08:44:09.593Z,3.38
2023-05-23T08:46:46.724Z,2.05
2023-05-23T08:49:23.114Z,2.85
2023-05-23T08:51:54.472Z,2.78
2023-05-23T08:54:22.416Z,3.03
2023-05-23T08:56:49.802Z,2.75
2023-05-23T08:59:18.753Z,2.65
2023-05-23T09:01:48.425Z,2.40
2023-05-23T09:04:16.169Z,3.28
2023-05-23T09:06:50.764Z,3.25
2023-05-23T09:09:19.166Z,2.40
2023-05-23T09:11:47.160Z,2.78
2023-05-23T09:14:15.496Z,3.38
2023-05-23T09:16:48.938Z,4.00
2023-05-23T09:19:19.321Z,2.33
2023-05-23T09:21:55.023Z,3.33
2023-05-23T09:24:37.991Z,2.00
2023-05-23T09:27:09.023Z,2.75
2023-05-23T09:29:40.519Z,2.88
2023-05-23T09:32:21.374Z,2.72
2023-05-23T09:35:05.768Z,2.80
2023-05-23T09:37:39.323Z,2.40
2023-05-23T09:40:10.444Z,2.10
2023-05-23T09:42:47.280Z,2.60
2023-05-23T09:45:16.696Z,2.58
2023-05-23T09:47:53.939Z,2.40
2023-05-23T09:50:22.274Z,2.65
2023-05-23T09:52:51.118Z,2.55
2023-05-23T09:55:18.679Z,2.85
2023-05-23T09:57:50.955Z,2.33
2023-05-23T10:00:18.813Z,3.47
2023-05-23T10:02:56.073Z,3.38
2023-05-23T10:05:46.826Z,2.40
2023-05-23T10:08:23.545Z,3.03
2023-05-23T10:10:56.466Z,2.20
2023-05-23T10:13:28.257Z,3.17
2023-05-23T10:16:27.797Z,2.60
2023-05-23T10:19:19.642Z,2.58
2023-05-23T10:22:01.276Z,2.08
2023-05-23T10:24:29.326Z,3.22
2023-05-23T10:26:56.446Z,2.22
2023-05-23T10:29:23.848Z,2.13
2023-05-23T10:31:52.495Z,4.60
2023-05-23T10:34:44.124Z,3.05
2023-05-23T10:37:23.129Z,2.70
2023-05-23T10:40:08.101Z,2.50
2023-05-23T10:43:08.110Z,1.95
2023-05-23T10:45:44.250Z,2.20
2023-05-23T10:48:37.512Z,1.90
2023-05-23T10:51:06.588Z,4.95
2023-05-23T10:53:40.376Z,3.22
2023-05-23T10:56:14.400Z,2.67
2023-05-23T10:58:41.469Z,3.13
2023-05-23T11:01:10.082Z,3.47
2023-05-23T11:03:54.824Z,3.10
2023-05-23T11:06:45.658Z,2.67
2023-05-23T11:09:22.144Z,1.88
2023-05-23T11:12:03.524Z,4.40
2023-05-23T11:14:54.911Z,2.35
2023-05-23T11:17:33.616Z,2.45
2023-05-23T11:20:09.805Z,2.50
2023-05-23T11:22:37.137Z,2.85
2023-05-23T11:25:10.123Z,2.50
2023-05-23T11:27:40.718Z,2.05
2023-05-23T11:30:18.454Z,2.20
2023-05-23T11:32:55.751Z,2.95
2023-05-23T11:35:23.156Z,3.30
2023-05-23T11:37:50.186Z,2.55
2023-05-23T11:40:35.880Z,2.15
2023-05-23T11:43:06.149Z,3.80
2023-05-23T11:45:35.285Z,2.30
2023-05-23T11:48:16.698Z,2.33
2023-05-23T11:50:52.394Z,2.55
2023-05-23T11:55:55.304Z,2.30
2023-05-23T11:58:26.865Z,1.52
2023-05-23T12:01:07.454Z,1.88
2023-05-23T12:03:38.331Z,3.55
2023-05-23T12:06:05.888Z,1.98
2023-05-23T12:08:32.834Z,3.28
2023-05-23T12:11:01.632Z,2.30
2023-05-23T12:13:30.005Z,1.77
2023-05-23T12:16:02.083Z,3.67
2023-05-23T12:18:32.111Z,1.83
2023-05-23T12:21:08.506Z,2.72
2023-05-23T12:23:36.466Z,2.22
2023-05-23T12:26:07.924Z,2.42
2023-05-23T12:28:39.714Z,2.88
2023-05-23T12:31:26.028Z,2.00
2023-05-23T12:33:53.754Z,2.92
2023-05-23T12:36:32.335Z,2.95
2023-05-23T12:39:04.037Z,2.45
2023-05-23T12:41:33.379Z,2.70
2023-05-23T12:44:02.308Z,1.98
2023-05-23T12:46:29.340Z,2.85
2023-05-23T12:48:56.394Z,1.48
2023-05-23T12:51:23.409Z,2.70
2023-05-23T12:53:51.257Z,1.48
2023-05-23T12:56:18.305Z,2.30
2023-05-23T12:58:45.206Z,3.30
2023-05-23T13:01:12.362Z,1.65
2023-05-23T13:03:39.450Z,2.67
2023-05-23T13:06:07.244Z,1.70
2023-05-23T13:08:34.162Z,2.03
2023-05-23T13:11:01.210Z,1.67
2023-05-23T13:13:28.354Z,1.60
2023-05-23T13:15:56.183Z,2.75
2023-05-23T13:18:23.656Z,2.13
2023-05-23T13:20:51.170Z,1.27
2023-05-23T13:23:18.238Z,1.63
2023-05-23T13:25:45.247Z,1.35
2023-05-23T13:28:12.285Z,2.40
2023-05-23T13:30:39.377Z,1.77
2023-05-23T13:33:06.510Z,1.65
2023-05-23T13:35:33.475Z,1.70
2023-05-23T13:38:00.639Z,1.55
2023-05-23T13:40:27.598Z,1.88
2023-05-23T13:42:54.762Z,2.10
2023-05-23T13:45:23.203Z,2.25
2023-05-23T13:47:50.337Z,1.58
2023-05-23T13:50:18.066Z,2.38
2023-05-23T13:52:48.995Z,1.50
2023-05-23T13:55:17.396Z,2.40
2023-05-23T13:57:44.601Z,1.75
2023-05-23T14:00:12.875Z,2.72
2023-05-23T14:02:39.906Z,1.67
2023-05-23T14:05:08.086Z,2.35
2023-05-23T14:07:35.103Z,2.05
2023-05-23T14:10:02.218Z,2.47
2023-05-23T14:12:29.166Z,2.00
2023-05-23T14:14:56.098Z,2.53
2023-05-23T14:17:23.919Z,2.22
2023-05-23T14:19:51.460Z,2.58
2023-05-23T14:22:18.442Z,1.77
2023-05-23T14:24:45.511Z,1.83
2023-05-23T14:27:12.450Z,1.95
2023-05-23T14:29:39.556Z,2.30
2023-05-23T14:32:07.021Z,1.70
2023-05-23T14:34:34.207Z,1.77
2023-05-23T14:37:01.460Z,2.05
2023-05-23T14:39:29.311Z,2.20
2023-05-23T14:41:56.546Z,1.80
2023-05-23T14:44:23.802Z,1.45
2023-05-23T14:46:51.115Z,2.20
2023-05-23T14:49:18.276Z,3.65
2023-05-23T14:51:51.299Z,2.45
2023-05-23T14:54:19.417Z,1.58
2023-05-23T14:56:46.539Z,1.92
2023-05-23T14:59:13.848Z,1.95
2023-05-23T15:01:41.296Z,1.48
2023-05-23T15:04:09.652Z,1.45
2023-05-23T15:06:39.305Z,2.63
2023-05-23T15:09:07.594Z,4.30
2023-05-23T15:11:38.910Z,1.42
2023-05-23T15:14:06.648Z,2.80
2023-05-23T15:16:36.723Z,2.72
2023-05-23T15:19:05.713Z,1.10
2023-05-23T15:21:32.921Z,1.50
2023-05-23T15:24:00.026Z,1.63
2023-05-23T15:26:27.485Z,1.55
2023-05-23T15:28:54.824Z,1.98
2023-05-23T15:31:22.097Z,3.00
2023-05-23T15:33:49.158Z,1.92
2023-05-23T15:36:16.231Z,2.75
2023-05-23T15:38:43.904Z,1.45
2023-05-23T15:41:11.593Z,1.38
2023-05-23T15:43:38.679Z,1.50
2023-05-23T15:46:05.813Z,1.45
2023-05-23T15:48:32.932Z,1.58
2023-05-23T15:51:00.067Z,2.15
2023-05-23T15:53:27.116Z,1.67
2023-05-23T15:55:54.114Z,2.35
2023-05-23T15:58:21.110Z,1.70
2023-05-23T16:00:48.086Z,2.53
2023-05-23T16:03:15.055Z,2.35
2023-05-23T16:05:42.452Z,1.38
2023-05-23T16:08:09.578Z,2.65
2023-05-23T16:10:39.718Z,1.60
2023-05-23T16:13:08.993Z,2.20
2023-05-23T16:15:35.999Z,2.03
2023-05-23T16:18:03.788Z,1.92
2023-05-23T16:20:30.804Z,2.33
2023-05-23T16:22:57.908Z,1.73
2023-05-23T16:25:24.860Z,2.72
2023-05-23T16:27:51.990Z,3.08
2023-05-23T16:30:19.002Z,1.85
2023-05-23T16:32:46.161Z,2.67
2023-05-23T16:35:13.167Z,1.98
2023-05-23T16:37:40.137Z,1.70
2023-05-23T16:40:07.992Z,1.75
2023-05-23T16:42:36.606Z,1.25
2023-05-23T16:45:04.793Z,1.55
2023-05-23T16:47:31.881Z,2.10
2023-05-23T16:49:58.979Z,2.00
2023-05-23T16:52:25.958Z,1.50
2023-05-23T16:54:53.021Z,1.60
2023-05-23T16:57:19.989Z,1.80
2023-05-23T16:59:46.948Z,1.63
2023-05-23T17:02:15.925Z,2.85
2023-05-23T17:04:43.015Z,1.60
2023-05-23T17:07:09.979Z,1.67
2023-05-23T17:09:39.071Z,1.40
2023-05-23T17:12:06.724Z,2.60
2023-05-23T17:14:34.117Z,1.63
2023-05-23T17:17:03.372Z,2.13
2023-05-23T17:19:30.525Z,2.05
2023-05-23T17:21:59.013Z,1.70
2023-05-23T17:24:26.032Z,1.77
2023-05-23T17:26:52.973Z,1.52
2023-05-23T17:29:21.074Z,2.28
2023-05-23T17:31:48.136Z,2.10
2023-05-23T17:34:15.201Z,1.63
2023-05-23T17:36:42.217Z,1.75
2023-05-23T17:39:09.753Z,1.50
2023-05-23T17:41:36.794Z,1.35
2023-05-23T17:44:03.830Z,2.45
2023-05-23T17:46:30.841Z,1.35
2023-05-23T17:48:57.860Z,3.00
2023-05-23T17:51:24.924Z,1.40
2023-05-23T17:53:53.734Z,1.75
2023-05-23T17:56:23.374Z,1.55
2023-05-23T17:58:50.900Z,1.60
2023-05-23T18:01:18.024Z,2.83
2023-05-23T18:03:45.241Z,1.52
2023-05-23T18:06:12.479Z,2.25
2023-05-23T18:08:40.994Z,1.63
2023-05-23T18:11:07.959Z,1.70
2023-05-23T18:13:34.923Z,1.40
2023-05-23T18:16:02.039Z,1.15
2023-05-23T18:18:29.143Z,1.38
2023-05-23T18:20:56.329Z,2.13
2023-05-23T18:23:23.391Z,2.00
2023-05-23T18:25:50.356Z,1.38
2023-05-23T18:28:18.406Z,1.60
2023-05-23T18:30:45.469Z,2.38
2023-05-23T18:33:12.549Z,2.17
2023-05-23T18:35:39.841Z,1.80
2023-05-23T18:38:07.580Z,1.73
2023-05-23T18:40:34.599Z,2.55
2023-05-23T18:43:01.611Z,2.30
2023-05-23T18:45:28.706Z,2.88
2023-05-23T18:47:56.128Z,2.75
2023-05-23T18:50:23.724Z,1.92
2023-05-23T18:52:50.804Z,1.77
2023-05-23T18:55:17.928Z,2.65
2023-05-23T18:57:44.953Z,1.80
2023-05-23T19:00:13.179Z,1.80
2023-05-23T19:02:44.250Z,2.58
2023-05-23T19:05:12.745Z,1.80
2023-05-23T19:07:39.990Z,2.85
2023-05-23T19:10:07.769Z,1.45
2023-05-23T19:12:34.854Z,1.80
2023-05-23T19:15:01.927Z,1.30
2023-05-23T19:17:28.997Z,1.10
2023-05-23T19:19:55.996Z,1.40
2023-05-23T19:22:23.061Z,2.08
2023-05-23T19:24:50.063Z,1.27
2023-05-23T19:27:17.076Z,1.73
2023-05-23T19:29:44.478Z,1.27
2023-05-23T19:32:11.629Z,2.65
2023-05-23T19:34:38.698Z,1.50
2023-05-23T19:37:06.370Z,1.55
2023-05-23T19:39:33.328Z,1.73
2023-05-23T19:42:00.346Z,1.90
2023-05-23T19:44:27.327Z,2.05
2023-05-23T19:46:54.387Z,2.50
2023-05-23T19:49:21.429Z,1.13
2023-05-23T19:51:48.843Z,1.38
2023-05-23T19:54:15.969Z,1.52
2023-05-23T19:56:43.022Z,1.55
2023-05-23T19:59:10.003Z,1.30
2023-05-23T20:01:37.037Z,1.27
2023-05-23T20:04:04.124Z,1.77
2023-05-23T20:06:31.280Z,1.73
2023-05-23T20:08:58.239Z,4.00
2023-05-23T20:11:27.048Z,2.13
2023-05-23T20:13:54.104Z,1.70
2023-05-23T20:16:21.101Z,1.98
2023-05-23T20:18:48.240Z,1.60
2023-05-23T20:21:15.482Z,2.03
2023-05-23T20:23:45.644Z,1.88
2023-05-23T20:26:12.969Z,2.35
2023-05-23T20:28:39.931Z,1.15
2023-05-23T20:31:07.107Z,2.55
2023-05-23T20:33:36.873Z,2.03
2023-05-23T20:36:04.757Z,1.85
2023-05-23T20:38:34.034Z,1.67
2023-05-23T20:41:08.484Z,3.03
2023-05-23T20:43:37.278Z,1.92
2023-05-23T20:46:09.909Z,2.67
2023-05-23T20:48:37.012Z,2.85
2023-05-23T20:51:05.808Z,2.00
2023-05-23T20:53:33.351Z,1.27
2023-05-23T20:56:01.425Z,1.35
2023-05-23T20:58:28.365Z,2.40
2023-05-23T21:00:55.960Z,2.45
2023-05-23T21:03:23.015Z,1.48
2023-05-23T21:05:50.129Z,2.10
2023-05-23T21:08:17.098Z,1.50
2023-05-23T21:10:46.847Z,1.63
2023-05-23T21:13:16.579Z,2.53
2023-05-23T21:15:43.713Z,2.10
2023-05-23T21:18:10.929Z,1.30
2023-05-23T21:20:37.951Z,1.73
2023-05-23T21:23:04.927Z,1.50
2023-05-23T21:25:32.194Z,2.08
2023-05-23T21:27:59.175Z,1.80
2023-05-23T21:30:26.522Z,1.83
2023-05-23T21:32:53.576Z,2.95
2023-05-23T21:35:20.699Z,1.42
2023-05-23T21:37:47.693Z,3.22
2023-05-23T21:40:14.692Z,2.00
2023-05-23T21:42:41.691Z,1.27
2023-05-23T21:45:09.318Z,1.70
2023-05-23T21:47:36.351Z,1.60
2023-05-23T21:50:04.573Z,1.75
2023-05-23T21:52:31.752Z,1.83
2023-05-23T21:54:58.752Z,2.10
2023-05-23T21:57:25.932Z,2.20
2023-05-23T21:59:53.114Z,1.40
2023-05-23T22:02:20.059Z,2.28
2023-05-23T22:04:47.164Z,1.65
2023-05-23T22:07:14.207Z,1.85
2023-05-23T22:09:41.380Z,1.27
2023-05-23T22:12:08.644Z,1.40
2023-05-23T22:14:35.681Z,1.27
2023-05-23T22:17:03.804Z,2.60
2023-05-23T22:19:30.878Z,1.00
2023-05-23T22:21:58.126Z,1.92
2023-05-23T22:24:25.302Z,1.80
2023-05-23T22:26:52.384Z,2.38
2023-05-23T22:29:19.457Z,2.10
2023-05-23T22:31:47.607Z,1.30
2023-05-23T22:34:15.077Z,2.22
2023-05-23T22:36:42.048Z,2.45
2023-05-23T22:39:09.552Z,1.48
2023-05-23T22:41:36.673Z,3.35
2023-05-23T22:44:03.766Z,1.92
2023-05-23T22:46:30.884Z,2.13
2023-05-23T22:48:58.200Z,1.77
2023-05-23T22:51:25.341Z,1.90
2023-05-23T22:53:52.980Z,2.15
2023-05-23T22:56:20.045Z,1.65
2023-05-23T22:58:47.039Z,1.52
2023-05-23T23:01:14.181Z,1.77
2023-05-23T23:03:41.310Z,1.75
2023-05-23T23:06:09.237Z,1.50
2023-05-23T23:08:37.564Z,1.88
2023-05-23T23:11:04.672Z,1.63
2023-05-23T23:13:31.712Z,1.65
2023-05-23T23:15:58.740Z,1.58
2023-05-23T23:18:26.904Z,1.98
2023-05-23T23:20:54.460Z,1.80
2023-05-23T23:23:22.806Z,2.00
2023-05-23T23:25:52.841Z,1.52
2023-05-23T23:28:20.299Z,1.73
2023-05-23T23:30:47.417Z,1.55
2023-05-23T23:33:14.977Z,2.10
2023-05-23T23:35:45.402Z,1.95
2023-05-23T23:38:12.510Z,2.35
2023-05-23T23:40:39.534Z,1.55
2023-05-23T23:43:06.520Z,1.38
2023-05-23T23:45:33.523Z,1.52
2023-05-23T23:48:00.501Z,2.22
2023-05-23T23:50:27.605Z,1.90
2023-05-23T23:52:54.587Z,2.03
2023-05-23T23:55:21.626Z,1.52
2023-05-23T23:57:48.692Z,1.58
